Time;durP1;ratioP1;P1;durP2;ratioP2;P2;SDS_P1;SDS_P2;PMS_P1;PMS_P2;Temp;Humidity;BMP_temperature;BMP_pressure;BME280_temperature;BME280_humidity;BME280_pressure;Samples;Min_cycle;Max_cycle;Signal;HPM_P1;HPM_P2
2023/11/11 00:01:52;;;;;;;28.60;18.70;;;;;;;7.62;85.06;98792.80;101568;1276;107192;-79
2023/11/11 00:04:38;;;;;;;;;;;;;;;7.59;85.14;98784.82;101567;1282;97962;-78
2023/11/11 00:07:26;;;;;;;28.30;19.50;;;;;;;7.56;85.43;98788.05;101584;1280;111071;-78
2023/11/11 00:10:02;;;;;;;30.50;18.50;;;;;;;7.54;85.80;98785.01;101565;1282;108895;-79
2023/11/11 00:12:50;;;;;;;26.90;18.20;;;;;;;7.51;85.93;98783.04;101471;1282;139083;-79
2023/11/11 00:15:37;;;;;;;25.30;18.80;;;;;;;7.50;86.04;98785.35;101296;1282;109722;-80
2023/11/11 00:18:10;;;;;;;25.90;18.80;;;;;;;7.49;86.23;98781.61;101289;1280;139254;-80
2023/11/11 00:20:48;;;;;;;29.50;20.30;;;;;;;7.47;86.52;98780.80;101554;1277;111250;-79
2023/11/11 00:23:25;;;;;;;26.20;18.00;;;;;;;7.45;86.60;98785.38;101528;1277;138553;-79
2023/11/11 00:26:10;;;;;;;;;;;;;;;7.46;86.73;98784.50;101713;1276;97906;-80
2023/11/11 00:28:49;;;;;;;24.80;16.90;;;;;;;7.45;86.90;98783.02;101590;1277;107496;-80
2023/11/11 00:31:27;;;;;;;26.00;17.00;;;;;;;7.47;86.99;98780.48;101630;1276;98045;-80
2023/11/11 00:34:16;;;;;;;26.70;17.20;;;;;;;7.49;87.23;98775.69;101623;1281;111887;-80
2023/11/11 00:37:03;;;;;;;24.10;16.90;;;;;;;7.52;87.17;98768.12;101393;1276;138334;-80
2023/11/11 00:39:40;;;;;;;24.80;15.50;;;;;;;7.58;87.28;98763.23;101569;1282;97953;-80
2023/11/11 00:42:28;;;;;;;23.80;17.00;;;;;;;7.63;87.33;98757.65;101506;1277;138043;-80
2023/11/11 00:45:17;;;;;;;25.00;16.80;;;;;;;7.65;87.02;98750.26;101579;1277;97941;-81
2023/11/11 00:48:05;;;;;;;27.30;19.10;;;;;;;7.69;87.08;98753.75;101556;1282;137653;-79
2023/11/11 00:50:53;;;;;;;28.80;18.30;;;;;;;7.70;87.12;98758.73;101565;1276;110431;-80
2023/11/11 00:53:23;;;;;;;24.50;17.80;;;;;;;7.67;87.15;98762.31;101535;1279;139250;-79
2023/11/11 00:56:09;;;;;;;;;;;;;;;7.64;87.17;98758.80;101586;1279;107393;-78
2023/11/11 00:58:57;;;;;;;23.10;16.70;;;;;;;7.60;87.38;98754.82;101422;1276;124771;-78
2023/11/11 01:01:45;;;;;;;24.20;16.80;;;;;;;7.57;87.64;98747.35;101601;1279;114331;-78
2023/11/11 01:04:33;;;;;;;21.90;15.60;;;;;;;7.57;87.89;98744.41;101574;1279;107390;-77
2023/11/11 01:07:02;;;;;;;24.30;16.60;;;;;;;7.58;87.97;98743.85;101353;1276;138655;-79
2023/11/11 01:09:50;;;;;;;24.00;16.40;;;;;;;7.60;88.13;98737.22;101634;1277;109007;-79
2023/11/11 01:12:38;;;;;;;23.00;16.80;;;;;;;7.62;88.29;98731.40;101502;1276;138386;-79
2023/11/11 01:15:26;;;;;;;25.70;17.50;;;;;;;7.62;88.43;98734.67;101654;1276;112929;-79
2023/11/11 01:18:14;;;;;;;23.90;17.80;;;;;;;7.62;88.48;98739.00;101438;1277;137978;-80
2023/11/11 01:20:51;;;;;;;23.80;16.90;;;;;;;7.61;88.67;98730.05;101587;1277;97847;-79
2023/11/11 01:23:41;;;;;;;21.50;15.60;;;;;;;7.59;88.76;98726.69;101497;1280;138335;-79
2023/11/11 01:26:29;;;;;;;22.20;15.70;;;;;;;7.56;88.90;98720.77;101574;1282;97851;-78
2023/11/11 01:28:56;;;;;;;19.80;14.90;;;;;;;7.55;89.18;98714.91;101362;1276;138629;-78
2023/11/11 01:31:28;;;;;;;23.80;14.60;;;;;;;7.54;89.25;98714.79;101374;1279;105853;-79
2023/11/11 01:33:58;;;;;;;20.50;14.80;;;;;;;7.54;89.45;98709.08;101596;1282;97975;-79
2023/11/11 01:36:26;;;;;;;19.10;14.10;;;;;;;7.55;89.49;98705.77;101211;1277;138459;-79
2023/11/11 01:39:12;;;;;;;;;;;;;;;7.58;89.52;98705.80;101587;1282;97835;-79
2023/11/11 01:41:53;;;;;;;23.30;16.00;;;;;;;7.58;89.45;98704.41;101443;1281;123776;-79
2023/11/11 01:44:31;;;;;;;22.30;16.80;;;;;;;7.61;89.56;98702.39;101584;1276;106848;-79
2023/11/11 01:47:04;;;;;;;23.40;16.60;;;;;;;7.62;89.32;98703.39;101303;1276;138157;-79
2023/11/11 01:49:34;;;;;;;18.80;15.10;;;;;;;7.59;89.28;98700.05;101588;1280;106619;-78
2023/11/11 01:52:12;;;;;;;19.50;14.30;;;;;;;7.58;89.19;98698.88;101588;1279;97934;-79
2023/11/11 01:54:50;;;;;;;20.50;14.70;;;;;;;7.58;89.18;98697.83;101348;1276;138548;-79
2023/11/11 01:57:30;;;;;;;24.20;14.60;;;;;;;7.59;89.12;98699.70;101553;1279;108102;-79
2023/11/11 02:00:05;;;;;;;19.00;14.70;;;;;;;7.61;89.07;98701.33;101308;1279;138523;-80
2023/11/11 02:02:43;;;;;;;20.10;15.30;;;;;;;7.63;88.80;98705.23;101606;1277;106922;-80
2023/11/11 02:05:31;;;;;;;19.50;15.20;;;;;;;7.63;88.80;98706.45;101481;1281;138018;-79
2023/11/11 02:08:17;;;;;;;;;;;;;;;7.61;88.66;98704.13;101712;1277;111166;-79
2023/11/11 02:10:54;;;;;;;23.90;17.00;;;;;;;7.56;88.60;98701.55;100728;1276;1003484;-78
2023/11/11 02:13:34;;;;;;;20.30;15.00;;;;;;;7.51;88.62;98700.55;101673;1278;97749;-79
2023/11/11 02:16:22;;;;;;;21.40;14.70;;;;;;;7.47;88.68;98705.24;101628;1277;107093;-79
2023/11/11 02:19:09;;;;;;;22.80;15.30;;;;;;;7.45;88.75;98703.60;101425;1278;138461;-79
2023/11/11 02:21:57;;;;;;;22.20;14.90;;;;;;;7.45;88.67;98705.52;101600;1276;112180;-80
2023/11/11 02:24:44;;;;;;;23.10;15.20;;;;;;;7.44;88.51;98705.18;101407;1276;138664;-80
2023/11/11 02:27:19;;;;;;;21.80;15.10;;;;;;;7.48;88.76;98706.93;101352;1277;98027;-78
2023/11/11 02:30:11;;;;;;;23.40;16.70;;;;;;;7.51;88.67;98698.67;101499;1276;138202;-78
2023/11/11 02:32:52;;;;;;;24.60;16.60;;;;;;;7.56;88.67;98704.67;101588;1279;97952;-77
2023/11/11 02:35:39;;;;;;;23.00;15.90;;;;;;;7.57;88.60;98701.86;101385;1280;138002;-79
2023/11/11 02:38:10;;;;;;;21.80;15.00;;;;;;;7.59;88.42;98700.92;101596;1281;108811;-77
2023/11/11 02:40:43;;;;;;;22.40;15.50;;;;;;;7.61;88.48;98697.88;101594;1278;97878;-78
2023/11/11 02:43:30;;;;;;;19.90;14.80;;;;;;;7.65;88.39;98697.20;101527;1280;108096;-77
2023/11/11 02:46:16;;;;;;;;;;;;;;;7.70;88.28;98695.90;101577;1282;97716;-78
2023/11/11 02:49:04;;;;;;;20.80;15.50;;;;;;;7.73;88.13;98693.55;100958;1282;123981;-78
2023/11/11 02:51:51;;;;;;;21.90;16.50;;;;;;;7.74;87.88;98695.60;101115;1285;107392;-78
2023/11/11 02:54:35;;;;;;;22.50;16.20;;;;;;;7.75;87.78;98696.75;101083;1282;137986;-78
2023/11/11 02:57:15;;;;;;;20.30;15.40;;;;;;;7.74;87.55;98693.68;101174;1285;106936;-77
2023/11/11 02:59:54;;;;;;;21.90;15.00;;;;;;;7.77;87.66;98697.52;101016;1285;138599;-77
2023/11/11 03:02:40;;;;;;;;;;;;;;;7.78;87.58;98694.68;101187;1282;112278;-78
2023/11/11 03:05:29;;;;;;;20.60;14.10;;;;;;;7.77;87.36;98700.27;101058;1283;125174;-77
2023/11/11 03:08:11;;;;;;;22.30;14.70;;;;;;;7.77;87.22;98695.95;101106;1282;98095;-79
2023/11/11 03:10:58;;;;;;;22.30;15.00;;;;;;;7.75;87.18;98688.94;100924;1282;138421;-78
2023/11/11 03:13:40;;;;;;;24.70;15.90;;;;;;;7.74;86.92;98687.80;101118;1282;97788;-79
2023/11/11 03:16:36;;;;;;;22.90;16.00;;;;;;;7.71;87.08;98691.35;101211;1285;111268;-79
2023/11/11 03:19:17;;;;;;;23.10;15.00;;;;;;;7.66;86.93;98691.25;101162;1285;137559;-79
2023/11/11 03:22:03;;;;;;;;;;;;;;;7.65;86.97;98687.34;101597;1278;97768;-79
2023/11/11 03:24:47;;;;;;;21.40;14.50;;;;;;;7.61;87.06;98686.80;101483;1276;124668;-79
2023/11/11 03:27:34;;;;;;;20.10;13.80;;;;;;;7.61;87.20;98689.09;101562;1276;97837;-79
2023/11/11 03:30:22;;;;;;;22.60;15.10;;;;;;;7.63;87.46;98687.96;101423;1276;138994;-79
2023/11/11 03:33:09;;;;;;;18.50;14.50;;;;;;;7.65;87.50;98684.91;101459;1282;108204;-79
2023/11/11 03:35:57;;;;;;;19.80;14.60;;;;;;;7.66;87.51;98682.61;101474;1280;138547;-79
2023/11/11 03:38:30;;;;;;;22.00;15.40;;;;;;;7.70;87.49;98680.15;101601;1279;107462;-80
2023/11/11 03:41:00;;;;;;;21.40;14.20;;;;;;;7.75;87.54;98679.08;101479;1279;138737;-77
2023/11/11 03:43:30;;;;;;;23.10;15.10;;;;;;;7.77;87.36;98680.36;101675;1278;111635;-78
2023/11/11 03:46:06;;;;;;;20.10;14.70;;;;;;;7.81;87.06;98679.83;101436;1276;108074;-77
2023/11/11 03:48:34;;;;;;;19.50;15.60;;;;;;;7.81;87.11;98677.39;101482;1279;137856;-79
2023/11/11 03:51:02;;;;;;;20.10;15.80;;;;;;;7.83;87.06;98676.65;101641;1282;107287;-78
2023/11/11 03:53:41;;;;;;;25.60;16.20;;;;;;;7.82;87.05;98676.31;101469;1281;137979;-78
2023/11/11 03:56:20;;;;;;;20.10;15.40;;;;;;;7.78;87.01;98673.94;101520;1281;111188;-78
2023/11/11 03:58:48;;;;;;;20.80;15.80;;;;;;;7.74;87.08;98676.36;101580;1279;107305;-76
2023/11/11 04:01:15;;;;;;;23.00;15.40;;;;;;;7.70;87.20;98675.65;101487;1281;138837;-78
2023/11/11 04:04:03;;;;;;;22.30;14.90;;;;;;;7.66;87.31;98675.33;101526;1278;107908;-78
2023/11/11 04:06:33;;;;;;;19.90;14.70;;;;;;;7.62;87.36;98675.86;101470;1278;138901;-78
2023/11/11 04:09:00;;;;;;;21.60;14.80;;;;;;;7.59;87.62;98677.56;101617;1277;111729;-77
2023/11/11 04:11:37;;;;;;;19.70;13.90;;;;;;;7.59;87.84;98676.69;101046;1280;138858;-78
2023/11/11 04:14:07;;;;;;;21.50;15.30;;;;;;;7.60;87.88;98674.58;101595;1282;97294;-78
2023/11/11 04:16:38;;;;;;;19.00;15.10;;;;;;;7.61;87.98;98672.45;101599;1276;107483;-77
2023/11/11 04:19:20;;;;;;;22.30;16.00;;;;;;;7.61;88.22;98667.78;101663;1281;97841;-78
2023/11/11 04:22:07;;;;;;;22.30;16.30;;;;;;;7.60;88.04;98668.51;101654;1282;111623;-78
2023/11/11 04:24:49;;;;;;;24.60;15.20;;;;;;;7.55;88.22;98664.94;101567;1280;138638;-78
2023/11/11 04:27:29;;;;;;;20.80;15.40;;;;;;;7.53;88.37;98664.33;101631;1277;97960;-78
2023/11/11 04:30:17;;;;;;;19.20;15.00;;;;;;;7.52;88.44;98656.77;101542;1278;138916;-78
2023/11/11 04:33:04;;;;;;;19.80;15.40;;;;;;;7.52;88.70;98655.70;101616;1278;97896;-78
2023/11/11 04:35:52;;;;;;;24.20;16.00;;;;;;;7.52;88.79;98652.58;101621;1279;138283;-79
2023/11/11 04:38:30;;;;;;;21.90;17.20;;;;;;;7.53;89.17;98656.21;101620;1282;107671;-77
2023/11/11 04:41:18;;;;;;;22.50;15.70;;;;;;;7.47;89.13;98654.24;101478;1279;138966;-77
2023/11/11 04:44:05;;;;;;;22.90;16.40;;;;;;;7.41;89.23;98655.39;101569;1276;107718;-77
2023/11/11 04:46:53;;;;;;;24.90;17.30;;;;;;;7.37;89.42;98655.04;101567;1282;97985;-77
2023/11/11 04:49:39;;;;;;;;;;;;;;;7.30;89.88;98654.98;101770;1280;110577;-78
2023/11/11 04:52:10;;;;;;;21.80;16.30;;;;;;;7.23;89.79;98651.70;101625;1279;107498;-78
2023/11/11 04:54:59;;;;;;;22.70;15.60;;;;;;;7.14;90.26;98651.34;101220;1280;138576;-79
2023/11/11 04:57:45;;;;;;;;;;;;;;;7.12;90.43;98648.16;101197;1280;107693;-77
2023/11/11 05:00:32;;;;;;;22.40;15.80;;;;;;;7.13;90.76;98648.80;101189;1280;125501;-77
2023/11/11 05:03:19;;;;;;;;;;;;;;;7.14;90.80;98647.04;101537;1276;111348;-77
2023/11/11 05:06:07;;;;;;;25.40;17.60;;;;;;;7.12;90.77;98639.02;101871;1276;124056;-78
2023/11/11 05:08:34;;;;;;;22.90;17.70;;;;;;;7.13;90.95;98641.73;101855;1276;98305;-77
2023/11/11 05:11:12;;;;;;;24.30;17.50;;;;;;;7.14;90.90;98640.98;101121;1281;137993;-79
2023/11/11 05:13:50;;;;;;;22.60;16.40;;;;;;;7.12;90.98;98645.73;101259;1276;97745;-78
2023/11/11 05:16:39;;;;;;;21.70;15.70;;;;;;;7.11;91.02;98645.61;101320;1276;111130;-79
2023/11/11 05:19:10;;;;;;;21.50;15.90;;;;;;;7.13;91.08;98647.95;101123;1281;138677;-77
2023/11/11 05:21:58;;;;;;;24.50;16.40;;;;;;;7.18;91.29;98645.83;101202;1276;97877;-78
2023/11/11 05:24:25;;;;;;;21.70;16.30;;;;;;;7.23;91.40;98644.92;101158;1276;138025;-79
2023/11/11 05:27:03;;;;;;;23.50;17.00;;;;;;;7.29;91.47;98648.14;101275;1277;97836;-78
2023/11/11 05:29:44;;;;;;;22.00;17.70;;;;;;;7.34;91.35;98649.45;102160;1276;137874;-79
2023/11/11 05:32:30;;;;;;;23.20;17.80;;;;;;;7.40;91.19;98649.02;101195;1276;106839;-79
2023/11/11 05:35:10;;;;;;;22.20;17.20;;;;;;;7.41;91.12;98649.14;101137;1277;138025;-78
2023/11/11 05:37:38;;;;;;;23.00;17.20;;;;;;;7.43;90.83;98647.52;101293;1276;107941;-77
2023/11/11 05:40:26;;;;;;;22.50;16.30;;;;;;;7.43;90.83;98651.47;101320;1281;97832;-78
2023/11/11 05:43:14;;;;;;;22.00;16.60;;;;;;;7.43;90.88;98648.19;101159;1280;138429;-78
2023/11/11 05:45:51;;;;;;;23.10;17.20;;;;;;;7.45;90.87;98653.45;101263;1276;106137;-78
2023/11/11 05:48:21;;;;;;;19.70;15.60;;;;;;;7.47;91.01;98654.21;101205;1277;138526;-78
2023/11/11 05:50:58;;;;;;;22.70;17.10;;;;;;;7.45;90.77;98654.66;101208;1281;109737;-78
2023/11/11 05:53:29;;;;;;;19.80;15.80;;;;;;;7.43;90.59;98655.61;101083;1280;138670;-78
2023/11/11 05:56:09;;;;;;;21.40;16.70;;;;;;;7.42;90.43;98658.63;101220;1281;111282;-78
2023/11/11 05:58:58;;;;;;;20.80;16.10;;;;;;;7.38;90.52;98652.07;101265;1276;107001;-78
2023/11/11 06:01:50;;;;;;;22.60;17.80;;;;;;;7.36;90.27;98656.29;101298;1276;97881;-78
2023/11/11 06:04:37;;;;;;;23.10;18.40;;;;;;;7.34;90.50;98654.48;101246;1276;106250;-78
2023/11/11 06:07:25;;;;;;;20.80;17.00;;;;;;;7.35;90.66;98658.90;101161;1277;139265;-78
2023/11/11 06:09:55;;;;;;;21.40;16.10;;;;;;;7.35;90.62;98660.11;101319;1276;111504;-78
2023/11/11 06:12:35;;;;;;;21.30;15.40;;;;;;;7.35;90.54;98658.24;100359;1281;1002940;-78
2023/11/11 06:15:14;;;;;;;22.20;14.90;;;;;;;7.33;90.51;98657.09;101293;1276;98367;-77
2023/11/11 06:18:00;;;;;;;21.40;16.30;;;;;;;7.32;90.31;98659.55;101159;1276;138428;-77
2023/11/11 06:20:37;;;;;;;22.60;16.40;;;;;;;7.33;90.18;98660.39;101271;1281;97860;-77
2023/11/11 06:23:15;;;;;;;22.60;16.50;;;;;;;7.33;90.26;98662.98;101156;1276;137833;-77
2023/11/11 06:25:53;;;;;;;20.80;16.70;;;;;;;7.31;90.12;98659.81;101284;1276;108283;-78
2023/11/11 06:28:37;;;;;;;18.80;15.30;;;;;;;7.28;90.18;98657.30;101210;1280;98632;-79
2023/11/11 06:31:26;;;;;;;28.00;16.80;;;;;;;7.26;90.05;98657.05;101031;1282;138373;-78
2023/11/11 06:34:04;;;;;;;20.50;14.70;;;;;;;7.27;90.21;98657.88;101324;1276;97774;-78
2023/11/11 06:36:52;;;;;;;20.70;14.10;;;;;;;7.28;90.30;98653.50;101190;1277;138372;-78
2023/11/11 06:39:30;;;;;;;20.20;15.10;;;;;;;7.38;90.44;98656.55;101275;1279;109703;-79
2023/11/11 06:42:11;;;;;;;22.10;15.20;;;;;;;7.43;90.20;98653.20;101215;1276;137883;-79
2023/11/11 06:44:50;;;;;;;27.40;16.50;;;;;;;7.46;89.86;98656.86;101148;1281;108523;-78
2023/11/11 06:47:20;;;;;;;23.00;14.90;;;;;;;7.48;89.86;98652.65;101125;1282;138210;-79
2023/11/11 06:50:02;;;;;;;21.20;14.60;;;;;;;7.49;89.73;98651.88;101191;1276;111567;-75
2023/11/11 06:52:49;;;;;;;20.10;14.10;;;;;;;7.52;89.66;98650.36;100987;1280;108011;-76
2023/11/11 06:55:27;;;;;;;20.40;13.80;;;;;;;7.56;89.57;98653.83;101123;1276;138429;-76
2023/11/11 06:58:07;;;;;;;19.10;14.30;;;;;;;7.63;89.55;98651.97;101224;1277;110144;-83
2023/11/11 07:00:47;;;;;;;20.90;14.30;;;;;;;7.68;89.62;98651.71;101121;1278;137871;-76
2023/11/11 07:03:24;;;;;;;20.20;14.30;;;;;;;7.73;89.47;98652.34;101152;1281;111336;-73
2023/11/11 07:05:51;;;;;;;21.40;14.80;;;;;;;7.77;89.29;98651.11;101098;1276;138249;-77
2023/11/11 07:08:39;;;;;;;19.30;15.00;;;;;;;7.84;89.25;98651.33;101125;1280;99675;-77
2023/11/11 07:11:18;;;;;;;17.30;14.20;;;;;;;7.83;88.92;98649.77;100993;1277;137965;-78
2023/11/11 07:14:06;;;;;;;18.50;13.10;;;;;;;7.86;88.78;98650.67;101159;1277;97758;-77
2023/11/11 07:16:46;;;;;;;16.80;12.80;;;;;;;7.87;88.60;98648.22;101201;1277;110338;-78
2023/11/11 07:19:24;;;;;;;18.50;13.90;;;;;;;7.92;88.37;98645.63;101151;1281;138093;-78
2023/11/11 07:21:58;;;;;;;18.10;13.50;;;;;;;7.94;88.24;98647.76;101266;1280;98380;-78
2023/11/11 07:24:41;;;;;;;19.70;14.80;;;;;;;7.97;88.00;98645.20;101055;1280;138214;-78
2023/11/11 07:27:19;;;;;;;17.70;14.30;;;;;;;7.99;87.92;98652.88;101127;1277;97838;-77
2023/11/11 07:30:12;;;;;;;22.40;14.60;;;;;;;8.01;87.75;98654.88;101085;1279;138305;-78
2023/11/11 07:32:44;;;;;;;18.00;14.10;;;;;;;7.96;87.70;98659.96;101167;1281;108791;-78
2023/11/11 07:35:35;;;;;;;15.80;12.30;;;;;;;7.94;87.50;98659.18;101060;1282;139838;-79
2023/11/11 07:38:22;;;;;;;;;;;;;;;7.94;87.35;98658.70;101233;1280;108698;-72
2023/11/11 07:40:51;;;;;;;18.40;13.40;;;;;;;7.91;87.28;98656.02;101510;1278;97968;-75
2023/11/11 07:43:28;;;;;;;17.60;12.70;;;;;;;7.95;87.67;98655.84;101439;1281;137858;-74
2023/11/11 07:46:09;;;;;;;19.80;14.40;;;;;;;8.03;87.78;98657.52;101528;1276;107535;-77
2023/11/11 07:48:47;;;;;;;19.60;13.80;;;;;;;8.14;87.67;98659.80;101488;1281;138579;-76
2023/11/11 07:51:35;;;;;;;19.70;13.80;;;;;;;8.17;87.06;98659.62;101474;1276;107711;-75
2023/11/11 07:54:12;;;;;;;19.60;14.60;;;;;;;8.18;86.87;98657.34;101388;1281;137990;-79
2023/11/11 07:56:58;;;;;;;;;;;;;;;8.22;86.87;98659.07;101629;1276;111451;-74
2023/11/11 07:59:43;;;;;;;19.00;13.90;;;;;;;8.20;86.69;98661.55;101392;1279;124147;-79
2023/11/11 08:02:29;;;;;;;18.50;13.70;;;;;;;8.21;86.80;98659.11;101525;1279;98366;-76
2023/11/11 08:05:08;;;;;;;20.20;13.40;;;;;;;8.25;86.80;98658.20;101484;1278;107606;-75
2023/11/11 08:07:49;;;;;;;15.90;12.60;;;;;;;8.35;86.82;98655.50;97503;1279;5415382;-75
2023/11/11 08:10:31;;;;;;;17.70;13.40;;;;;;;8.51;86.71;98648.36;101579;1276;112274;-73
2023/11/11 08:13:04;;;;;;;21.90;14.40;;;;;;;8.67;86.60;98642.33;101561;1277;137985;-75
2023/11/11 08:15:42;;;;;;;19.00;15.50;;;;;;;8.91;86.44;98639.39;101685;1276;97880;-75
2023/11/11 08:18:10;;;;;;;18.10;14.60;;;;;;;9.15;86.27;98642.29;101535;1278;137895;-74
2023/11/11 08:20:37;;;;;;;20.60;15.50;;;;;;;9.32;85.79;98649.20;101694;1279;97780;-75
2023/11/11 08:23:07;;;;;;;24.60;19.00;;;;;;;9.46;85.58;98651.05;101740;1277;111465;-74
2023/11/11 08:25:37;;;;;;;20.20;15.30;;;;;;;9.53;84.88;98654.88;101607;1276;107755;-74
2023/11/11 08:28:07;;;;;;;20.00;15.20;;;;;;;9.56;84.63;98660.27;101610;1276;98395;-74
2023/11/11 08:30:36;;;;;;;21.30;16.20;;;;;;;9.56;84.11;98662.16;101434;1276;138072;-73
2023/11/11 08:33:11;;;;;;;22.50;16.30;;;;;;;9.52;83.92;98666.56;101504;1281;98001;-74
2023/11/11 08:35:38;;;;;;;20.60;14.80;;;;;;;9.49;83.83;98664.98;101496;1281;140088;-74
2023/11/11 08:38:05;;;;;;;18.30;14.60;;;;;;;9.49;83.66;98667.89;101546;1282;105964;-68
2023/11/11 08:40:36;;;;;;;19.90;14.50;;;;;;;9.52;83.70;98666.70;101656;1282;97769;-80
2023/11/11 08:43:14;;;;;;;20.00;15.80;;;;;;;9.56;83.64;98660.06;101498;1276;137673;-74
2023/11/11 08:45:43;;;;;;;20.20;16.00;;;;;;;9.59;83.38;98660.25;101678;1282;97725;-85
2023/11/11 08:48:10;;;;;;;22.00;17.30;;;;;;;9.60;83.28;98664.36;101519;1276;137803;-85
2023/11/11 08:50:38;;;;;;;22.80;19.00;;;;;;;9.61;83.14;98667.44;101563;1280;107488;-86
2023/11/11 08:53:05;;;;;;;23.40;18.30;;;;;;;9.63;83.37;98669.08;101613;1276;97723;-82
2023/11/11 08:55:32;;;;;;;23.80;18.00;;;;;;;9.62;83.01;98665.28;101474;1276;137710;-89
2023/11/11 08:57:59;;;;;;;24.10;18.90;;;;;;;9.61;83.03;98664.16;101629;1279;97845;-89
2023/11/11 09:00:27;;;;;;;24.10;18.00;;;;;;;9.59;83.21;98659.58;101475;1276;137841;-78
2023/11/11 09:02:55;;;;;;;19.20;16.80;;;;;;;9.61;83.33;98656.86;101589;1279;108007;-86
2023/11/11 09:05:42;;;;;;;21.80;16.70;;;;;;;9.68;83.55;98654.73;101524;1276;139252;-85
2023/11/11 09:08:30;;;;;;;22.50;17.40;;;;;;;9.80;83.46;98657.93;101478;1282;107918;-86
2023/11/11 09:10:59;;;;;;;23.30;18.20;;;;;;;9.89;83.26;98655.88;101616;1279;97950;-81
2023/11/11 09:13:29;;;;;;;24.60;19.30;;;;;;;10.01;83.24;98661.45;101412;1276;138159;-86
2023/11/11 09:16:07;;;;;;;25.50;20.80;;;;;;;10.11;82.82;98655.86;101492;1282;108799;-83
2023/11/11 09:18:55;;;;;;;25.90;20.30;;;;;;;10.17;82.20;98655.02;101513;1277;138104;-73
2023/11/11 09:21:22;;;;;;;24.20;19.70;;;;;;;10.16;82.07;98651.08;101640;1276;107053;-74
2023/11/11 09:23:53;;;;;;;24.20;20.30;;;;;;;10.19;82.29;98649.84;101467;1282;138414;-76
2023/11/11 09:26:31;;;;;;;26.30;21.90;;;;;;;10.20;81.93;98649.63;101668;1276;110828;-74
2023/11/11 09:28:59;;;;;;;25.20;20.20;;;;;;;10.18;81.90;98651.12;101645;1276;107776;-79
2023/11/11 09:31:29;;;;;;;20.90;17.20;;;;;;;10.18;81.77;98648.52;101515;1276;138511;-77
2023/11/11 09:34:00;;;;;;;20.70;16.70;;;;;;;10.18;81.93;98647.13;101548;1278;107974;-75
2023/11/11 09:36:28;;;;;;;24.20;20.00;;;;;;;10.23;81.88;98646.03;101423;1280;138488;-73
2023/11/11 09:38:58;;;;;;;25.50;20.40;;;;;;;10.32;81.40;98640.48;101686;1279;112641;-79
2023/11/11 09:41:27;;;;;;;37.40;28.80;;;;;;;10.35;81.36;98631.79;101550;1279;138169;-76
2023/11/11 09:44:15;;;;;;;39.60;32.20;;;;;;;10.41;81.26;98630.42;101659;1277;97857;-79
2023/11/11 09:46:56;;;;;;;26.90;23.80;;;;;;;10.49;81.41;98628.03;101623;1276;107866;-79
2023/11/11 09:49:27;;;;;;;24.10;20.60;;;;;;;10.65;81.41;98624.50;101527;1282;137945;-80
2023/11/11 09:51:57;;;;;;;24.60;21.50;;;;;;;10.81;80.96;98618.55;101574;1276;111638;-76
2023/11/11 09:54:25;;;;;;;27.50;22.70;;;;;;;10.89;80.50;98609.83;101450;1276;136978;-78
2023/11/11 09:57:11;;;;;;;;;;;;;;;10.91;79.89;98608.55;101740;1280;97960;-76
2023/11/11 09:59:42;;;;;;;26.10;21.50;;;;;;;10.86;79.69;98610.55;101483;1276;124171;-79
2023/11/11 10:02:22;;;;;;;26.00;21.70;;;;;;;10.81;79.44;98613.30;101598;1276;97988;-75
2023/11/11 10:04:49;;;;;;;23.30;20.00;;;;;;;10.73;79.37;98614.98;101613;1276;111504;-79
2023/11/11 10:07:28;;;;;;;24.40;18.40;;;;;;;10.67;79.62;98607.34;101389;1276;138502;-75
2023/11/11 10:09:55;;;;;;;23.30;18.70;;;;;;;10.62;79.63;98602.63;101480;1282;98390;-75
2023/11/11 10:12:23;;;;;;;22.80;18.20;;;;;;;10.63;79.42;98602.59;101430;1277;138691;-76
2023/11/11 10:14:51;;;;;;;23.40;19.00;;;;;;;10.67;79.61;98601.64;101539;1282;97870;-78
2023/11/11 10:17:19;;;;;;;24.10;19.20;;;;;;;10.70;79.36;98598.32;101409;1277;141306;-79
2023/11/11 10:19:48;;;;;;;24.60;20.50;;;;;;;10.71;79.23;98601.38;101631;1279;106643;-78
2023/11/11 10:22:44;;;;;;;25.30;20.40;;;;;;;10.70;79.13;98595.51;101564;1282;98385;-81
2023/11/11 10:25:31;;;;;;;23.30;20.30;;;;;;;10.65;79.10;98594.61;101465;1281;138628;-82
2023/11/11 10:27:59;;;;;;;25.40;20.60;;;;;;;10.64;79.06;98590.84;101620;1277;97850;-82
2023/11/11 10:30:27;;;;;;;24.30;20.50;;;;;;;10.67;79.07;98585.44;101506;1277;137873;-78
2023/11/11 10:32:58;;;;;;;23.40;18.60;;;;;;;10.64;78.95;98589.44;101661;1281;106310;-77
2023/11/11 10:35:26;;;;;;;26.90;18.50;;;;;;;10.61;79.03;98587.39;101500;1277;139644;-80
2023/11/11 10:37:54;;;;;;;21.50;17.80;;;;;;;10.57;78.95;98592.65;101557;1276;106557;-78
2023/11/11 10:40:22;;;;;;;23.40;18.20;;;;;;;10.59;79.17;98592.89;101576;1280;97723;-78
2023/11/11 10:43:11;;;;;;;22.80;18.20;;;;;;;10.62;79.02;98593.41;101509;1282;137956;-76
2023/11/11 10:45:38;;;;;;;21.10;18.40;;;;;;;10.62;79.25;98592.02;101623;1282;108397;-79
2023/11/11 10:48:09;;;;;;;21.20;18.40;;;;;;;10.70;79.32;98590.17;101501;1280;137989;-75
2023/11/11 10:50:39;;;;;;;25.30;19.60;;;;;;;10.74;79.20;98582.97;100933;1277;1002922;-73
2023/11/11 10:53:07;;;;;;;23.40;18.70;;;;;;;10.72;78.88;98583.41;101658;1280;95971;-76
2023/11/11 10:55:49;;;;;;;32.50;25.70;;;;;;;10.69;78.98;98580.64;101632;1276;111838;-79
2023/11/11 10:58:18;;;;;;;36.10;28.00;;;;;;;10.66;79.01;98577.71;101643;1282;105994;-81
2023/11/11 11:00:46;;;;;;;24.10;18.30;;;;;;;10.62;79.09;98584.52;101639;1279;138193;-81
2023/11/11 11:03:24;;;;;;;24.60;17.80;;;;;;;10.60;78.85;98586.58;101599;1281;107903;-82
2023/11/11 11:05:58;;;;;;;22.90;16.90;;;;;;;10.50;79.09;98576.52;101605;1277;138868;-83
2023/11/11 11:08:32;;;;;;;22.90;17.10;;;;;;;10.55;79.42;98586.29;101536;1282;111074;-81
2023/11/11 11:11:26;;;;;;;24.60;18.90;;;;;;;10.56;79.38;98590.45;101495;1280;107249;-83
2023/11/11 11:13:58;;;;;;;25.40;19.90;;;;;;;10.59;79.42;98589.56;101921;1279;97741;-81
2023/11/11 11:16:29;;;;;;;30.80;22.80;;;;;;;10.58;79.35;98591.67;101825;1279;106528;-83
2023/11/11 11:19:14;;;;;;;30.00;22.60;;;;;;;10.58;79.34;98587.86;101623;1279;138042;-82
2023/11/11 11:21:41;;;;;;;27.70;21.40;;;;;;;10.56;79.21;98589.70;101742;1279;111508;-82
2023/11/11 11:24:14;;;;;;;27.20;20.90;;;;;;;10.53;79.25;98590.10;101554;1277;138685;-82
2023/11/11 11:26:50;;;;;;;29.60;22.90;;;;;;;10.52;79.32;98588.77;101592;1280;97877;-82
2023/11/11 11:29:23;;;;;;;27.70;21.60;;;;;;;10.49;79.41;98587.58;101773;1282;108575;-82
2023/11/11 11:32:08;;;;;;;27.70;21.10;;;;;;;10.44;79.34;98585.61;101608;1280;97745;-82
2023/11/11 11:35:27;;;;;;;28.50;20.80;;;;;;;10.38;79.42;98587.13;101617;1277;110250;-80
2023/11/11 11:37:56;;;;;;;28.30;21.70;;;;;;;10.38;79.30;98587.66;101588;1282;107249;-82
2023/11/11 11:40:38;;;;;;;32.90;23.90;;;;;;;10.33;79.18;98586.39;101563;1282;97966;-83
2023/11/11 11:43:24;;;;;;;30.60;24.40;;;;;;;10.30;79.59;98583.80;101419;1279;137976;-83
2023/11/11 11:46:04;;;;;;;35.10;24.00;;;;;;;10.30;79.84;98581.36;101582;1279;97909;-88
2023/11/11 11:48:33;;;;;;;31.70;25.40;;;;;;;10.31;79.85;98583.74;101458;1282;137872;-87
2023/11/11 11:51:12;;;;;;;35.40;25.30;;;;;;;10.27;79.67;98586.72;101604;1281;107898;-83
2023/11/11 11:53:42;;;;;;;32.90;25.30;;;;;;;10.24;79.68;98588.29;101581;1281;138372;-80
2023/11/11 11:56:11;;;;;;;29.00;22.30;;;;;;;10.18;79.76;98586.19;101497;1280;107340;-86
2023/11/11 11:58:50;;;;;;;29.90;22.30;;;;;;;10.13;79.77;98581.94;101640;1283;97848;-82
2023/11/11 12:01:27;;;;;;;29.60;22.00;;;;;;;10.10;79.77;98581.23;101587;1279;138632;-81
2023/11/11 12:03:55;;;;;;;33.10;23.70;;;;;;;10.13;79.97;98578.33;101802;1280;107798;-81